createdAt,value
2023-02-25T00:01:17.116Z,98875.53
2023-02-25T00:03:44.111Z,98873.59
2023-02-25T00:06:15.432Z,98866.31
2023-02-25T00:08:45.645Z,98860.16
2023-02-25T00:11:13.613Z,98848.13
2023-02-25T00:13:41.362Z,98860.41
2023-02-25T00:16:08.998Z,98854.69
2023-02-25T00:18:35.981Z,98855.88
2023-02-25T00:21:05.556Z,98854.34
2023-02-25T00:23:32.406Z,98866.09
2023-02-25T00:26:03.181Z,98843.41
2023-02-25T00:28:29.732Z,98858.03
2023-02-25T00:30:56.435Z,98853.03
2023-02-25T00:33:23.022Z,98859.78
2023-02-25T00:35:51.328Z,98891.84
2023-02-25T00:38:18.162Z,98893.50
2023-02-25T00:40:46.257Z,98892.50
2023-02-25T00:43:12.789Z,98899.53
2023-02-25T00:45:42.902Z,98895.25
2023-02-25T00:48:09.484Z,98893.66
2023-02-25T00:50:36.284Z,98878.84
2023-02-25T00:53:03.033Z,98885.22
2023-02-25T00:55:33.380Z,98879.97
2023-02-25T00:58:03.227Z,98881.94
2023-02-25T01:00:31.555Z,98885.22
2023-02-25T01:03:00.817Z,98878.56
2023-02-25T01:05:27.362Z,98877.09
2023-02-25T01:07:53.916Z,98881.81
2023-02-25T01:10:20.429Z,98880.50
2023-02-25T01:12:46.957Z,98874.75
2023-02-25T01:15:15.180Z,98875.91
2023-02-25T01:17:41.781Z,98877.53
2023-02-25T01:20:13.047Z,98867.22
2023-02-25T01:22:41.778Z,98880.63
2023-02-25T01:25:12.990Z,98867.56
2023-02-25T01:27:39.635Z,98877.22
2023-02-25T01:30:06.762Z,98868.91
2023-02-25T01:32:33.342Z,98870.59
2023-02-25T01:34:59.925Z,98865.97
2023-02-25T01:37:26.536Z,98862.28
2023-02-25T01:39:53.016Z,98872.38
2023-02-25T01:42:19.544Z,98870.16
2023-02-25T01:45:20.179Z,98870.25
2023-02-25T01:47:50.675Z,98864.09
2023-02-25T01:50:19.691Z,98874.13
2023-02-25T01:52:46.384Z,98874.13
2023-02-25T01:55:13.357Z,98873.34
2023-02-25T01:57:40.037Z,98873.34
2023-02-25T02:00:28.305Z,98877.59
2023-02-25T02:02:55.629Z,98875.97
2023-02-25T02:05:25.729Z,98871.38
2023-02-25T02:07:52.229Z,98878.66
2023-02-25T02:10:19.734Z,98874.84
2023-02-25T02:12:47.400Z,98886.41
2023-02-25T02:15:15.532Z,98874.28
2023-02-25T02:17:41.914Z,98871.69
2023-02-25T02:20:47.357Z,98878.66
2023-02-25T02:23:34.291Z,98871.16
2023-02-25T02:26:28.211Z,98874.25
2023-02-25T02:29:20.121Z,98872.56
2023-02-25T02:32:03.119Z,98875.41
2023-02-25T02:34:50.111Z,98885.84
2023-02-25T02:37:53.606Z,98879.63
2023-02-25T02:40:31.092Z,98886.00
2023-02-25T02:43:08.754Z,98880.97
2023-02-25T02:45:47.816Z,98874.78
2023-02-25T02:48:37.706Z,98883.22
2023-02-25T02:51:12.448Z,98877.94
2023-02-25T02:53:42.881Z,98877.88
2023-02-25T02:56:12.970Z,98896.16
2023-02-25T02:58:49.304Z,98873.22
2023-02-25T03:01:18.704Z,98886.91
2023-02-25T03:03:52.579Z,98889.78
2023-02-25T03:06:27.405Z,98898.13
2023-02-25T03:08:57.197Z,98897.72
2023-02-25T03:11:23.779Z,98910.00
2023-02-25T03:13:51.357Z,98903.63
2023-02-25T03:16:29.351Z,98905.63
2023-02-25T03:19:03.452Z,98911.66
2023-02-25T03:21:36.460Z,98915.50
2023-02-25T03:24:04.636Z,98913.63
2023-02-25T03:26:32.763Z,98925.56
2023-02-25T03:29:02.300Z,98924.31
2023-02-25T03:31:32.442Z,98933.53
2023-02-25T03:34:19.043Z,98930.31
2023-02-25T03:36:52.940Z,98940.03
2023-02-25T03:39:22.209Z,98946.31
2023-02-25T03:41:54.963Z,98936.78
2023-02-25T03:44:25.317Z,98941.56
2023-02-25T03:46:53.812Z,98951.13
2023-02-25T03:49:25.810Z,98960.91
2023-02-25T03:51:52.964Z,98962.69
2023-02-25T03:54:22.575Z,98958.81
2023-02-25T03:56:51.056Z,98966.09
2023-02-25T03:59:18.876Z,98968.78
2023-02-25T04:01:47.436Z,98962.94
2023-02-25T04:04:14.475Z,98974.25
2023-02-25T04:06:41.268Z,98981.72
2023-02-25T04:09:07.894Z,98981.88
2023-02-25T04:11:34.568Z,98985.25
2023-02-25T04:14:02.183Z,98981.91
2023-02-25T04:16:28.942Z,98983.16
2023-02-25T04:19:02.407Z,98986.38
2023-02-25T04:21:35.688Z,99005.75
2023-02-25T04:24:06.056Z,98999.75
2023-02-25T04:26:34.557Z,99009.38
2023-02-25T04:29:04.972Z,99010.16
2023-02-25T04:31:37.207Z,99004.28
2023-02-25T04:34:07.872Z,99020.34
2023-02-25T04:36:36.416Z,99017.41
2023-02-25T04:39:10.154Z,99017.66
2023-02-25T04:41:37.348Z,99020.81
2023-02-25T04:46:52.254Z,99029.97
2023-02-25T04:49:21.021Z,99025.88
2023-02-25T04:51:49.627Z,99034.00
2023-02-25T04:54:18.509Z,99023.84
2023-02-25T04:56:45.476Z,99037.22
2023-02-25T04:59:12.741Z,99031.06
2023-02-25T05:01:40.172Z,99029.25
2023-02-25T05:04:07.390Z,99035.50
2023-02-25T05:06:34.769Z,99040.00
2023-02-25T05:09:01.402Z,99034.09
2023-02-25T05:11:28.804Z,99038.63
2023-02-25T05:13:57.142Z,99051.66
2023-02-25T05:16:24.862Z,99045.94
2023-02-25T05:18:52.067Z,99052.06
2023-02-25T05:21:20.975Z,99052.75
2023-02-25T05:23:49.174Z,99051.84
2023-02-25T05:26:17.120Z,99054.22
2023-02-25T05:28:48.716Z,99067.03
2023-02-25T05:31:15.440Z,99074.19
2023-02-25T05:33:41.963Z,99075.91
2023-02-25T05:36:10.138Z,99069.72
2023-02-25T05:38:36.836Z,99080.50
2023-02-25T05:41:05.863Z,99079.38
2023-02-25T05:43:32.475Z,99081.09
2023-02-25T05:46:00.473Z,99084.97
2023-02-25T05:48:27.226Z,99088.00
2023-02-25T05:51:03.888Z,99094.06
2023-02-25T05:53:30.463Z,99100.63
2023-02-25T05:55:56.992Z,99111.34
2023-02-25T05:58:24.017Z,99118.41
2023-02-25T06:00:50.699Z,99105.88
2023-02-25T06:03:17.465Z,99118.97
2023-02-25T06:05:46.250Z,99118.72
2023-02-25T06:08:14.192Z,99125.59
2023-02-25T06:10:41.064Z,99118.63
2023-02-25T06:13:09.160Z,99134.53
2023-02-25T06:15:40.131Z,99142.69
2023-02-25T06:18:06.692Z,99143.66
2023-02-25T06:20:35.224Z,99151.22
2023-02-25T06:23:02.607Z,99146.59
2023-02-25T06:25:30.009Z,99152.41
2023-02-25T06:28:00.692Z,99161.38
2023-02-25T06:30:28.843Z,99169.81
2023-02-25T06:32:55.972Z,99180.53
2023-02-25T06:35:25.351Z,99177.16
2023-02-25T06:37:56.225Z,99186.22
2023-02-25T06:40:22.948Z,99191.44
2023-02-25T06:42:49.816Z,99199.06
2023-02-25T06:45:16.350Z,99199.16
2023-02-25T06:47:42.974Z,99206.72
2023-02-25T06:50:10.070Z,99213.88
2023-02-25T06:52:36.753Z,99217.34
2023-02-25T06:55:06.765Z,99235.28
2023-02-25T06:57:34.213Z,99232.59
2023-02-25T07:00:00.855Z,99238.19
2023-02-25T07:02:28.257Z,99247.66
2023-02-25T07:04:55.132Z,99230.91
2023-02-25T07:07:22.493Z,99244.78
2023-02-25T07:09:49.252Z,99255.22
2023-02-25T07:12:16.169Z,99258.16
2023-02-25T07:14:42.972Z,99268.28
2023-02-25T07:17:09.772Z,99273.97
2023-02-25T07:19:36.352Z,99272.63
2023-02-25T07:22:03.250Z,99271.28
2023-02-25T07:24:29.997Z,99272.63
2023-02-25T07:26:56.551Z,99280.09
2023-02-25T07:29:23.161Z,99281.66
2023-02-25T07:31:49.850Z,99282.66
2023-02-25T07:34:16.634Z,99287.78
2023-02-25T07:36:43.169Z,99290.94
2023-02-25T07:39:11.341Z,99302.75
2023-02-25T07:41:38.337Z,99299.38
2023-02-25T07:44:05.812Z,99305.41
2023-02-25T07:46:33.182Z,99321.16
2023-02-25T07:49:00.848Z,99317.69
2023-02-25T07:51:28.027Z,99322.81
2023-02-25T07:53:55.995Z,99321.16
2023-02-25T07:56:23.406Z,99328.16
2023-02-25T07:58:50.288Z,99328.38
2023-02-25T08:01:30.999Z,99338.88
2023-02-25T08:03:59.786Z,99342.66
2023-02-25T08:06:27.685Z,99340.22
2023-02-25T08:08:55.388Z,99341.75
2023-02-25T08:11:24.207Z,99342.63
2023-02-25T08:13:51.125Z,99356.22
2023-02-25T08:16:19.442Z,99358.47
2023-02-25T08:18:47.042Z,99361.06
2023-02-25T08:21:15.382Z,99356.47
2023-02-25T08:23:41.905Z,99369.16
2023-02-25T08:26:09.910Z,99361.34
2023-02-25T08:28:37.307Z,99375.66
2023-02-25T08:31:07.023Z,99370.56
2023-02-25T08:33:34.081Z,99371.31
2023-02-25T08:36:31.275Z,99383.69
2023-02-25T08:38:58.869Z,99383.94
2023-02-25T08:41:27.436Z,99388.19
2023-02-25T08:43:55.381Z,99390.63
2023-02-25T08:46:23.085Z,99398.09
2023-02-25T08:48:51.232Z,99398.78
2023-02-25T08:51:18.454Z,99402.31
2023-02-25T08:53:45.087Z,99415.38
2023-02-25T08:56:13.705Z,99416.28
2023-02-25T08:58:40.948Z,99423.41
2023-02-25T09:01:13.213Z,99424.84
2023-02-25T09:03:53.256Z,99432.34
2023-02-25T09:06:25.643Z,99423.28
2023-02-25T09:08:52.872Z,99437.69
2023-02-25T09:11:21.088Z,99445.72
2023-02-25T09:13:47.856Z,99450.97
2023-02-25T09:16:17.360Z,99458.50
2023-02-25T09:18:45.839Z,99461.97
2023-02-25T09:21:12.937Z,99472.47
2023-02-25T09:23:40.025Z,99482.59
2023-02-25T09:26:09.973Z,99478.16
2023-02-25T09:28:36.688Z,99476.03
2023-02-25T09:31:03.685Z,99491.03
2023-02-25T09:33:33.980Z,99491.44
2023-02-25T09:36:12.322Z,99490.34
2023-02-25T09:38:40.497Z,99490.75
2023-02-25T09:41:24.776Z,99495.16
2023-02-25T09:44:00.954Z,99503.59
2023-02-25T09:46:30.028Z,99505.28
2023-02-25T09:49:14.804Z,99511.22
2023-02-25T09:51:44.442Z,99519.91
2023-02-25T09:54:19.591Z,99519.91
2023-02-25T09:56:46.472Z,99533.63
2023-02-25T09:59:15.884Z,99527.56
2023-02-25T10:01:47.421Z,99526.47
2023-02-25T10:04:37.797Z,99532.88
2023-02-25T10:07:21.164Z,99539.31
2023-02-25T10:10:03.077Z,99542.34
2023-02-25T10:12:43.267Z,99547.94
2023-02-25T10:15:22.488Z,99540.69
2023-02-25T10:18:00.802Z,99546.56
2023-02-25T10:20:48.682Z,99550.38
2023-02-25T10:23:40.572Z,99557.03
2023-02-25T10:26:22.844Z,99559.16
2023-02-25T10:28:55.322Z,99563.81
2023-02-25T10:31:23.202Z,99573.69
2023-02-25T10:33:56.858Z,99574.28
2023-02-25T10:36:41.523Z,99575.75
2023-02-25T10:39:09.966Z,99570.41
2023-02-25T10:41:37.076Z,99579.25
2023-02-25T10:44:03.737Z,99585.84
2023-02-25T10:46:50.608Z,99590.06
2023-02-25T10:49:23.392Z,99585.38
2023-02-25T10:52:03.696Z,99599.00
2023-02-25T10:54:35.446Z,99604.59
2023-02-25T10:57:08.502Z,99603.44
2023-02-25T10:59:38.631Z,99606.78
2023-02-25T11:02:21.415Z,99607.38
2023-02-25T11:04:49.112Z,99613.16
2023-02-25T11:07:35.715Z,99620.56
2023-02-25T11:10:19.553Z,99635.28
2023-02-25T11:12:53.094Z,99626.00
2023-02-25T11:15:45.838Z,99623.59
2023-02-25T11:18:31.108Z,99627.50
2023-02-25T11:21:03.659Z,99636.44
2023-02-25T11:23:33.031Z,99640.00
2023-02-25T11:25:59.654Z,99646.81
2023-02-25T11:28:41.271Z,99644.81
2023-02-25T11:31:17.825Z,99645.44
2023-02-25T11:33:50.824Z,99648.34
2023-02-25T11:36:23.501Z,99645.44
2023-02-25T11:39:03.878Z,99650.94
2023-02-25T11:41:32.232Z,99658.69
2023-02-25T11:44:11.308Z,99661.34
2023-02-25T11:46:38.159Z,99652.69
2023-02-25T11:49:15.035Z,99663.22
2023-02-25T11:52:03.883Z,99668.69
2023-02-25T11:54:36.378Z,99669.47
2023-02-25T11:57:36.072Z,99664.75
2023-02-25T12:00:25.608Z,99688.34
2023-02-25T12:03:10.436Z,99682.22
2023-02-25T12:06:06.798Z,99692.84
2023-02-25T12:08:52.215Z,99695.94
2023-02-25T12:11:40.552Z,99700.91
2023-02-25T12:14:25.952Z,99695.88
2023-02-25T12:17:00.891Z,99703.25
2023-02-25T12:19:57.199Z,99704.88
2023-02-25T12:22:46.359Z,99704.69
2023-02-25T12:25:28.349Z,99709.19
2023-02-25T12:28:17.135Z,99718.72
2023-02-25T12:31:17.787Z,99723.88
2023-02-25T12:34:06.809Z,99741.13
2023-02-25T12:36:43.529Z,99741.91
2023-02-25T12:39:19.240Z,99752.72
2023-02-25T12:42:13.742Z,99760.81
2023-02-25T12:45:03.659Z,99762.72
2023-02-25T12:48:19.069Z,99764.78
2023-02-25T12:51:15.144Z,99770.13
2023-02-25T12:54:03.036Z,99778.13
2023-02-25T12:56:53.249Z,99775.63
2023-02-25T12:59:42.560Z,99783.81
2023-02-25T13:02:33.963Z,99787.47
2023-02-25T13:05:15.863Z,99795.94
2023-02-25T13:08:10.827Z,99792.06
2023-02-25T13:10:44.428Z,99798.66
2023-02-25T13:13:30.778Z,99804.28
2023-02-25T13:16:13.269Z,99809.81
2023-02-25T13:18:50.641Z,99811.31
2023-02-25T13:21:27.446Z,99806.31
2023-02-25T13:24:11.703Z,99816.53
2023-02-25T13:27:02.866Z,99818.66
2023-02-25T13:29:46.145Z,99816.44
2023-02-25T13:32:32.191Z,99820.06
2023-02-25T13:35:32.280Z,99824.06
2023-02-25T13:38:20.286Z,99825.41
2023-02-25T13:41:11.610Z,99830.38
2023-02-25T13:44:07.519Z,99839.66
2023-02-25T13:46:43.317Z,99842.13
2023-02-25T13:49:30.619Z,99845.81
2023-02-25T13:52:17.570Z,99853.44
2023-02-25T13:55:10.142Z,99858.44
2023-02-25T13:58:14.497Z,99854.84
2023-02-25T14:01:04.303Z,99872.78
2023-02-25T14:03:58.308Z,99865.09
2023-02-25T14:06:47.489Z,99878.97
2023-02-25T14:09:38.325Z,99889.97
2023-02-25T14:12:31.080Z,99895.22
2023-02-25T14:15:02.107Z,99894.28
2023-02-25T14:17:37.783Z,99901.50
2023-02-25T14:20:28.418Z,99906.84
2023-02-25T14:23:22.704Z,99910.44
2023-02-25T14:26:14.272Z,99915.50
2023-02-25T14:29:06.611Z,99922.41
2023-02-25T14:32:08.667Z,99914.69
2023-02-25T14:34:50.538Z,99927.00
2023-02-25T14:37:26.580Z,99920.84
2023-02-25T14:40:05.257Z,99935.34
2023-02-25T14:42:57.703Z,99932.19
2023-02-25T14:45:42.285Z,99938.00
2023-02-25T14:48:27.271Z,99943.66
2023-02-25T14:51:18.684Z,99946.34
2023-02-25T14:54:00.692Z,99955.78
2023-02-25T14:57:01.617Z,99950.09
2023-02-25T14:59:40.301Z,99955.75
2023-02-25T15:02:06.851Z,99958.88
2023-02-25T15:04:35.722Z,99962.66
2023-02-25T15:07:59.829Z,99955.44
2023-02-25T15:11:03.737Z,99961.91
2023-02-25T15:13:38.459Z,99982.84
2023-02-25T15:16:13.916Z,99977.44
2023-02-25T15:19:07.964Z,99982.69
2023-02-25T15:21:44.076Z,99993.56
2023-02-25T15:24:40.549Z,99996.91
2023-02-25T15:27:35.167Z,100006.69
2023-02-25T15:30:12.616Z,100010.47
2023-02-25T15:32:53.385Z,100017.06
2023-02-25T15:35:23.433Z,100026.81
2023-02-25T15:37:49.836Z,100029.50
2023-02-25T15:40:16.381Z,100032.94
2023-02-25T15:42:48.335Z,100034.22
2023-02-25T15:45:29.392Z,100048.84
2023-02-25T15:48:08.129Z,100051.69
2023-02-25T15:50:43.639Z,100051.38
2023-02-25T15:53:23.344Z,100054.22
2023-02-25T15:55:53.573Z,100058.00
2023-02-25T15:58:26.013Z,100062.25
2023-02-25T16:00:58.892Z,100076.41
2023-02-25T16:03:31.461Z,100085.22
2023-02-25T16:06:29.962Z,100079.81
2023-02-25T16:09:08.091Z,100081.22
2023-02-25T16:11:44.331Z,100089.00
2023-02-25T16:14:29.210Z,100090.97
2023-02-25T16:16:58.278Z,100106.66
2023-02-25T16:19:28.855Z,100100.00
2023-02-25T16:22:01.811Z,100115.06
2023-02-25T16:24:28.759Z,100114.25
2023-02-25T16:27:05.408Z,100129.16
2023-02-25T16:29:54.548Z,100131.53
2023-02-25T16:32:33.821Z,100132.47
2023-02-25T16:35:14.372Z,100137.19
2023-02-25T16:37:43.784Z,100143.16
2023-02-25T16:40:34.934Z,100147.81
2023-02-25T16:43:01.362Z,100162.44
2023-02-25T16:46:04.201Z,100160.75
2023-02-25T16:48:33.923Z,100171.53
2023-02-25T16:51:20.594Z,100168.88
2023-02-25T16:53:49.703Z,100174.56
2023-02-25T16:56:26.240Z,100178.63
2023-02-25T16:58:59.784Z,100185.25
2023-02-25T17:01:29.390Z,100188.03
2023-02-25T17:04:28.259Z,100194.97
2023-02-25T17:07:14.172Z,100204.44
2023-02-25T17:09:43.569Z,100198.59
2023-02-25T17:12:14.626Z,100203.41
2023-02-25T17:14:44.659Z,100207.66
2023-02-25T17:17:36.424Z,100215.72
2023-02-25T17:20:06.022Z,100219.66
2023-02-25T17:22:33.675Z,100225.66
2023-02-25T17:25:00.358Z,100227.84
2023-02-25T17:27:28.465Z,100238.91
2023-02-25T17:29:55.360Z,100236.13
2023-02-25T17:32:31.233Z,100239.34
2023-02-25T17:35:00.889Z,100243.69
2023-02-25T17:37:28.731Z,100248.63
2023-02-25T17:39:55.943Z,100254.06
2023-02-25T17:42:36.661Z,100253.56
2023-02-25T17:45:08.436Z,100258.50
2023-02-25T17:47:37.170Z,100262.84
2023-02-25T17:50:28.865Z,100265.72
2023-02-25T17:52:56.118Z,100271.38
2023-02-25T17:55:28.100Z,100267.31
2023-02-25T17:57:58.306Z,100271.56
2023-02-25T18:00:32.426Z,100282.72
2023-02-25T18:03:16.078Z,100284.19
2023-02-25T18:06:25.848Z,100285.78
2023-02-25T18:08:53.848Z,100292.81
2023-02-25T18:11:41.374Z,100297.66
2023-02-25T18:14:34.184Z,100307.13
2023-02-25T18:17:01.691Z,100305.00
2023-02-25T18:19:36.946Z,100305.78
2023-02-25T18:22:04.147Z,100311.00
2023-02-25T18:24:33.503Z,100306.66
2023-02-25T18:27:15.352Z,100321.59
2023-02-25T18:29:41.860Z,100322.69
2023-02-25T18:32:08.628Z,100317.63
2023-02-25T18:34:35.200Z,100331.91
2023-02-25T18:37:01.893Z,100334.66
2023-02-25T18:39:28.410Z,100333.97
2023-02-25T18:41:55.045Z,100334.09
2023-02-25T18:44:21.555Z,100337.53
2023-02-25T18:46:48.255Z,100343.16
2023-02-25T18:49:14.837Z,100340.41
2023-02-25T18:51:41.405Z,100343.97
2023-02-25T18:54:12.387Z,100339.91
2023-02-25T18:56:38.957Z,100346.53
2023-02-25T18:59:05.844Z,100352.47
2023-02-25T19:01:33.269Z,100352.16
2023-02-25T19:04:00.355Z,100361.19
2023-02-25T19:06:32.054Z,100366.03
2023-02-25T19:08:58.542Z,100371.16
2023-02-25T19:11:27.410Z,100369.00
2023-02-25T19:13:54.526Z,100372.44
2023-02-25T19:16:23.332Z,100382.53
2023-02-25T19:18:50.299Z,100374.25
2023-02-25T19:21:18.872Z,100378.09
2023-02-25T19:23:45.948Z,100385.50
2023-02-25T19:26:14.523Z,100391.44
2023-02-25T19:28:41.088Z,100394.13
2023-02-25T19:31:08.620Z,100394.59
2023-02-25T19:33:35.615Z,100399.13
2023-02-25T19:36:03.735Z,100406.88
2023-02-25T19:38:30.395Z,100404.69
2023-02-25T19:41:01.412Z,100408.44
2023-02-25T19:43:27.897Z,100407.94
2023-02-25T19:45:54.532Z,100413.97
2023-02-25T19:48:21.223Z,100418.63
2023-02-25T19:50:47.852Z,100423.75
2023-02-25T19:53:14.464Z,100419.09
2023-02-25T19:55:43.116Z,100422.59
2023-02-25T19:58:09.751Z,100427.84
2023-02-25T20:00:36.380Z,100436.13
2023-02-25T20:03:02.962Z,100444.94
2023-02-25T20:05:29.455Z,100444.94
2023-02-25T20:07:56.228Z,100443.84
2023-02-25T20:10:22.783Z,100456.91
2023-02-25T20:12:49.394Z,100462.34
2023-02-25T20:15:16.434Z,100461.91
2023-02-25T20:17:44.869Z,100463.41
2023-02-25T20:20:14.013Z,100462.13
2023-02-25T20:22:41.070Z,100470.56
2023-02-25T20:25:08.804Z,100471.94
2023-02-25T20:27:37.161Z,100476.47
2023-02-25T20:30:04.781Z,100479.41
2023-02-25T20:32:31.452Z,100482.59
2023-02-25T20:34:58.150Z,100493.84
2023-02-25T20:37:30.640Z,100490.09
2023-02-25T20:39:59.020Z,100495.44
2023-02-25T20:42:30.576Z,100492.88
2023-02-25T20:44:58.577Z,100492.84
2023-02-25T20:47:35.463Z,100495.50
2023-02-25T20:50:04.188Z,100502.56
2023-02-25T20:52:30.823Z,100505.50
2023-02-25T20:54:58.146Z,100507.69
2023-02-25T20:57:26.694Z,100512.09
2023-02-25T20:59:54.115Z,100512.59
2023-02-25T21:02:21.115Z,100512.09
2023-02-25T21:04:47.658Z,100513.69
2023-02-25T21:07:14.393Z,100522.28
2023-02-25T21:09:40.979Z,100530.41
2023-02-25T21:12:07.753Z,100529.91
2023-02-25T21:14:34.338Z,100531.13
2023-02-25T21:17:00.879Z,100535.09
2023-02-25T21:19:28.666Z,100533.31
2023-02-25T21:21:55.274Z,100539.66
2023-02-25T21:24:21.958Z,100538.78
2023-02-25T21:26:48.586Z,100547.38
2023-02-25T21:29:15.173Z,100543.78
2023-02-25T21:31:42.098Z,100553.38
2023-02-25T21:34:11.682Z,100550.34
2023-02-25T21:36:38.940Z,100549.47
2023-02-25T21:39:06.953Z,100548.09
2023-02-25T21:41:33.769Z,100548.03
2023-02-25T21:44:00.407Z,100551.22
2023-02-25T21:46:27.582Z,100560.94
2023-02-25T21:48:55.849Z,100552.81
2023-02-25T21:51:24.967Z,100569.50
2023-02-25T21:53:56.545Z,100558.13
2023-02-25T21:56:24.054Z,100563.25
2023-02-25T21:58:55.530Z,100562.19
2023-02-25T22:01:26.020Z,100568.13
2023-02-25T22:03:52.780Z,100570.47
2023-02-25T22:06:19.912Z,100575.00
2023-02-25T22:08:46.417Z,100575.50
2023-02-25T22:11:14.326Z,100575.78
2023-02-25T22:13:41.139Z,100579.25
2023-02-25T22:16:08.464Z,100580.31
2023-02-25T22:18:35.266Z,100583.44
2023-02-25T22:21:04.637Z,100586.75
2023-02-25T22:23:31.194Z,100592.22
2023-02-25T22:26:04.666Z,100601.03
2023-02-25T22:28:31.434Z,100599.44
2023-02-25T22:30:58.325Z,100598.59
2023-02-25T22:33:25.127Z,100598.38
2023-02-25T22:35:56.610Z,100607.25
2023-02-25T22:38:23.270Z,100607.53
2023-02-25T22:40:49.897Z,100616.25
2023-02-25T22:43:17.205Z,100619.22
2023-02-25T22:45:43.822Z,100618.63
2023-02-25T22:48:10.352Z,100621.28
2023-02-25T22:50:36.886Z,100634.06
2023-02-25T22:53:03.435Z,100636.28
2023-02-25T22:55:30.044Z,100637.88
2023-02-25T22:57:56.570Z,100642.06
2023-02-25T23:00:23.978Z,100642.13
2023-02-25T23:02:50.500Z,100642.81
2023-02-25T23:05:17.113Z,100654.16
2023-02-25T23:07:43.681Z,100655.53
2023-02-25T23:10:10.607Z,100652.28
2023-02-25T23:12:37.171Z,100662.69
2023-02-25T23:15:04.179Z,100656.56
2023-02-25T23:17:30.815Z,100662.94
2023-02-25T23:20:00.238Z,100657.94
2023-02-25T23:22:28.941Z,100661.91
2023-02-25T23:24:55.519Z,100656.56
2023-02-25T23:27:22.059Z,100670.47
2023-02-25T23:29:48.581Z,100674.16
2023-02-25T23:32:15.335Z,100666.78
2023-02-25T23:34:42.006Z,100678.56
2023-02-25T23:37:08.632Z,100681.78
2023-02-25T23:39:35.226Z,100682.28
2023-02-25T23:42:01.733Z,100697.88
2023-02-25T23:44:28.259Z,100694.91
2023-02-25T23:46:54.764Z,100692.56
2023-02-25T23:49:21.344Z,100694.75
2023-02-25T23:51:48.770Z,100702.13
2023-02-25T23:54:19.162Z,100701.97
2023-02-25T23:56:46.013Z,100701.09
2023-02-25T23:59:12.770Z,100707.97
